Time;durP1;ratioP1;P1;durP2;ratioP2;P2;SDS_P1;SDS_P2;PMS_P1;PMS_P2;Temp;Humidity;BMP_temperature;BMP_pressure;BME280_temperature;BME280_humidity;BME280_pressure;Samples;Min_cycle;Max_cycle;Signal;HPM_P1;HPM_P2
2021/09/06 00:00:30;;;;;;;19.83;11.50;;;;;;;12.81;73.61;101129.47;8599705;34;20411;-71
2021/09/06 00:05:35;;;;;;;22.33;11.73;;;;;;;12.86;73.50;101128.25;8599525;34;20196;-71
2021/09/06 00:10:42;;;;;;;19.50;11.73;;;;;;;12.76;73.34;101131.69;8599593;34;20243;-72
2021/09/06 00:15:45;;;;;;;20.67;13.48;;;;;;;12.69;73.73;101122.34;8599176;34;20184;-72
2021/09/06 00:20:50;;;;;;;23.13;13.18;;;;;;;12.62;73.90;101126.50;8599963;34;20267;-71
2021/09/06 00:25:53;;;;;;;20.88;12.18;;;;;;;12.75;74.01;101118.31;8604050;34;20154;-72
2021/09/06 00:30:57;;;;;;;22.00;10.98;;;;;;;12.74;73.25;101119.28;8604587;34;20558;-72
2021/09/06 00:36:02;;;;;;;20.45;11.63;;;;;;;12.56;73.23;101117.06;8605256;34;20605;-72
2021/09/06 00:41:05;;;;;;;19.42;11.23;;;;;;;12.47;73.46;101123.16;8604617;34;20189;-72
2021/09/06 00:46:08;;;;;;;18.83;11.48;;;;;;;12.33;73.51;101124.22;8568184;34;20247;-72
2021/09/06 00:51:12;;;;;;;18.55;10.00;;;;;;;12.26;73.66;101117.56;8579757;34;20781;-72
2021/09/06 00:56:17;;;;;;;22.17;11.90;;;;;;;12.41;73.95;101112.00;8579363;34;20597;-72
2021/09/06 01:01:21;;;;;;;17.63;10.45;;;;;;;12.33;72.81;101115.28;8603351;34;20164;-72
2021/09/06 01:06:26;;;;;;;18.08;10.75;;;;;;;12.29;72.77;101116.53;8579206;34;20200;-72
2021/09/06 01:11:47;;;;;;;21.70;11.38;;;;;;;12.29;72.92;101113.81;8579026;34;20204;-72
2021/09/06 01:16:56;;;;;;;19.20;11.88;;;;;;;12.23;73.55;101117.81;8601696;34;20154;-72
2021/09/06 01:22:01;;;;;;;24.27;11.63;;;;;;;12.05;73.67;101127.28;8601669;34;20146;-72
2021/09/06 01:27:06;;;;;;;21.88;11.95;;;;;;;11.92;74.24;101122.81;8603009;34;20450;-72
2021/09/06 01:32:09;;;;;;;22.42;12.80;;;;;;;11.79;75.85;101127.38;8602993;34;20597;-70
2021/09/06 01:37:18;;;;;;;22.23;12.48;;;;;;;11.72;76.39;101128.84;8600897;34;20275;-71
2021/09/06 01:42:30;;;;;;;18.80;11.88;;;;;;;11.72;76.55;101118.06;8601082;34;20138;-70
2021/09/06 01:47:37;;;;;;;22.17;12.27;;;;;;;11.57;76.97;101122.72;8578260;34;20923;-72
2021/09/06 01:52:41;;;;;;;20.02;11.75;;;;;;;11.57;76.55;101111.97;8581133;34;20156;-71
2021/09/06 01:57:46;;;;;;;20.23;12.23;;;;;;;11.85;75.88;101104.56;8600640;34;20186;-71
2021/09/06 02:02:53;;;;;;;18.90;10.57;;;;;;;11.71;74.90;101113.63;8601015;34;20181;-72
2021/09/06 02:08:07;;;;;;;18.50;11.05;;;;;;;11.65;74.00;101109.56;8579183;34;20619;-72
2021/09/06 02:13:12;;;;;;;19.45;11.25;;;;;;;11.54;74.64;101114.88;8602276;34;20244;-72
2021/09/06 02:18:16;;;;;;;13.52;8.82;;;;;;;11.57;74.30;101111.97;8577326;34;20145;-72
2021/09/06 02:23:19;;;;;;;14.50;8.88;;;;;;;11.42;74.71;101122.03;8600226;34;20632;-72
2021/09/06 02:28:26;;;;;;;17.73;9.88;;;;;;;11.24;75.21;101121.56;8578352;34;20216;-73
2021/09/06 02:33:34;;;;;;;16.33;10.43;;;;;;;11.10;75.80;101131.53;8583188;34;20244;-72
2021/09/06 02:38:46;;;;;;;16.92;9.70;;;;;;;10.95;76.47;101130.81;8605042;34;20145;-71
2021/09/06 02:43:53;;;;;;;14.13;8.88;;;;;;;10.78;77.19;101132.00;8583318;34;20185;-71
2021/09/06 02:48:56;;;;;;;20.13;11.27;;;;;;;10.78;77.38;101140.06;8576811;34;20150;-72
2021/09/06 02:54:00;;;;;;;18.70;11.52;;;;;;;10.75;77.52;101124.13;8576755;34;20189;-72
2021/09/06 02:59:04;;;;;;;15.80;9.88;;;;;;;10.80;76.93;101132.75;8576850;34;20251;-72
2021/09/06 03:04:07;;;;;;;14.38;9.02;;;;;;;10.79;75.42;101131.03;8576348;34;20165;-72
2021/09/06 03:09:11;;;;;;;15.73;9.80;;;;;;;10.70;75.24;101127.16;8599435;34;20271;-72
2021/09/06 03:14:15;;;;;;;17.33;9.82;;;;;;;10.68;74.94;101126.41;8600062;34;20728;-72
2021/09/06 03:19:24;;;;;;;17.65;9.73;;;;;;;10.72;75.01;101121.66;8576219;34;22055;-72
2021/09/06 03:24:30;;;;;;;17.45;9.43;;;;;;;10.54;74.67;101116.63;8575564;34;20527;-72
2021/09/06 03:29:35;;;;;;;17.48;10.23;;;;;;;10.32;75.44;101124.44;8600134;34;20611;-72
2021/09/06 03:34:38;;;;;;;16.90;9.15;;;;;;;10.34;76.30;101123.38;8599471;34;20336;-72
2021/09/06 03:39:43;;;;;;;14.40;9.63;;;;;;;10.43;76.22;101126.38;8575592;34;21483;-72
2021/09/06 03:44:48;;;;;;;15.38;9.43;;;;;;;10.23;76.52;101123.25;8598585;34;20466;-72
2021/09/06 03:49:52;;;;;;;16.92;10.10;;;;;;;10.17;76.77;101137.06;8577044;34;20734;-72
2021/09/06 03:54:55;;;;;;;17.83;11.07;;;;;;;10.36;75.98;101131.31;8574731;34;20189;-72
2021/09/06 04:00:04;;;;;;;17.60;10.25;;;;;;;10.15;76.61;101123.75;8574451;34;21124;-72
2021/09/06 04:05:20;;;;;;;16.75;10.27;;;;;;;10.16;75.96;101127.28;8599155;34;20260;-72
2021/09/06 04:10:24;;;;;;;17.65;9.68;;;;;;;10.12;75.41;101139.19;8575202;34;20196;-72
2021/09/06 04:15:29;;;;;;;13.18;8.20;;;;;;;10.06;75.03;101139.59;8574371;34;20478;-72
2021/09/06 04:20:34;;;;;;;14.25;8.48;;;;;;;10.05;74.56;101148.63;8574423;34;20534;-72
2021/09/06 04:25:37;;;;;;;11.60;7.93;;;;;;;9.32;75.35;101154.25;8574445;34;20883;-72
2021/09/06 04:30:42;;;;;;;16.48;9.15;;;;;;;8.77;77.55;101156.72;8575597;34;20566;-72
2021/09/06 04:35:58;;;;;;;14.02;9.05;;;;;;;8.42;78.64;101161.53;8574912;34;20311;-72
2021/09/06 04:41:05;;;;;;;16.25;9.60;;;;;;;8.69;78.32;101160.84;8597644;34;20196;-72
2021/09/06 04:46:12;;;;;;;14.95;10.02;;;;;;;8.96;77.99;101155.59;8575017;34;20273;-70
2021/09/06 04:51:17;;;;;;;15.13;9.50;;;;;;;9.22;77.16;101160.22;8575547;34;20197;-72
2021/09/06 04:56:22;;;;;;;15.98;8.40;;;;;;;9.46;76.26;101154.22;8597790;34;20193;-72
2021/09/06 05:01:29;;;;;;;18.10;9.10;;;;;;;9.55;75.58;101158.16;8575286;34;20156;-70
2021/09/06 05:06:34;;;;;;;15.82;9.40;;;;;;;9.55;75.20;101164.38;8575749;34;20147;-72
2021/09/06 05:11:38;;;;;;;19.35;10.75;;;;;;;9.60;75.54;101172.13;8602029;34;20594;-72
2021/09/06 05:16:43;;;;;;;28.05;11.38;;;;;;;9.62;75.70;101173.75;8580060;34;21051;-72
2021/09/06 05:21:48;;;;;;;28.67;13.43;;;;;;;9.38;76.87;101183.34;8580078;34;20177;-72
2021/09/06 05:26:51;;;;;;;21.77;11.60;;;;;;;9.48;77.69;101180.00;8578987;34;20598;-72
2021/09/06 05:31:56;;;;;;;22.85;12.38;;;;;;;9.92;78.18;101175.41;8579845;34;20259;-72
2021/09/06 05:37:00;;;;;;;30.83;12.85;;;;;;;10.15;77.34;101180.13;8603035;34;21666;-72
2021/09/06 05:42:05;;;;;;;31.40;12.82;;;;;;;10.38;77.26;101194.69;8602309;34;20181;-72
2021/09/06 05:47:09;;;;;;;31.05;13.15;;;;;;;10.56;76.73;101186.38;8580086;34;20197;-72
2021/09/06 05:52:18;;;;;;;31.27;13.90;;;;;;;10.46;77.14;101199.56;8578387;34;20158;-71
2021/09/06 05:57:21;;;;;;;50.40;15.75;;;;;;;10.59;77.38;101211.19;8601703;34;20200;-72
2021/09/06 06:02:25;;;;;;;63.42;15.05;;;;;;;10.75;76.89;101208.31;8579250;34;20754;-72
2021/09/06 06:07:29;;;;;;;21.30;12.73;;;;;;;10.99;77.10;101208.44;8578035;34;20188;-72
2021/09/06 06:12:33;;;;;;;24.58;13.70;;;;;;;11.13;76.40;101209.31;8577710;34;20161;-72
2021/09/06 06:17:42;;;;;;;40.75;16.02;;;;;;;10.94;76.35;101215.09;8577875;34;20184;-72
2021/09/06 06:22:46;;;;;;;119.15;18.50;;;;;;;11.31;77.31;101208.03;8577633;34;20354;-72
2021/09/06 06:27:59;;;;;;;35.67;14.95;;;;;;;11.27;76.44;101217.28;8577424;34;20599;-72
2021/09/06 06:33:04;;;;;;;32.45;14.95;;;;;;;11.52;76.81;101215.53;8600753;34;20157;-72
2021/09/06 06:38:14;;;;;;;56.58;17.15;;;;;;;11.64;76.70;101218.19;8577890;34;20547;-72
2021/09/06 06:43:25;;;;;;;49.92;16.85;;;;;;;12.05;75.65;101216.16;8577999;34;20189;-72
2021/09/06 06:48:30;;;;;;;29.05;16.55;;;;;;;12.34;74.39;101231.03;8578212;34;21022;-72
2021/09/06 06:53:53;;;;;;;48.60;16.73;;;;;;;12.57;74.32;101236.50;8577175;34;20189;-72
2021/09/06 06:59:00;;;;;;;80.65;20.33;;;;;;;12.80;73.60;101235.59;8582367;34;20146;-72
2021/09/06 07:04:05;;;;;;;86.80;22.07;;;;;;;12.94;73.50;101231.81;8585173;34;20584;-72
2021/09/06 07:09:12;;;;;;;71.90;20.10;;;;;;;13.06;72.45;101238.13;8578210;34;20220;-72
2021/09/06 07:14:15;;;;;;;16.70;8.75;;;;;;;13.16;72.83;101235.56;8577186;34;20189;-72
2021/09/06 07:19:20;;;;;;;19.90;10.88;;;;;;;13.58;71.42;101243.97;8576953;34;20146;-72
2021/09/06 07:24:24;;;;;;;26.02;13.25;;;;;;;14.10;70.53;101243.28;8576937;34;20252;-72
2021/09/06 07:29:27;;;;;;;19.00;12.70;;;;;;;14.45;69.26;101246.75;8577339;34;20240;-72
2021/09/06 07:34:35;;;;;;;24.25;14.02;;;;;;;14.33;69.06;101254.03;8576412;34;20669;-72
2021/09/06 07:39:39;;;;;;;24.65;15.48;;;;;;;14.37;68.76;101260.88;8576874;34;20638;-73
2021/09/06 07:44:43;;;;;;;28.83;16.25;;;;;;;14.48;69.26;101268.13;8580103;34;20150;-72
2021/09/06 07:49:47;;;;;;;28.88;16.55;;;;;;;14.88;68.56;101267.47;8578682;34;20272;-72
2021/09/06 07:54:51;;;;;;;38.72;18.88;;;;;;;15.70;67.78;101262.13;8575322;34;20215;-72
2021/09/06 07:59:55;;;;;;;31.67;17.05;;;;;;;15.69;66.53;101261.28;8575966;34;20189;-72
2021/09/06 08:04:59;;;;;;;32.45;17.42;;;;;;;15.97;65.40;101260.66;8576153;34;20204;-72
2021/09/06 08:10:02;;;;;;;31.08;16.77;;;;;;;16.19;64.97;101263.13;8576542;34;20141;-72
2021/09/06 08:15:08;;;;;;;32.28;18.13;;;;;;;16.56;65.43;101255.22;8575777;34;21055;-72
2021/09/06 08:20:17;;;;;;;28.75;18.35;;;;;;;16.09;65.79;101263.09;8576430;34;20455;-72
2021/09/06 08:25:23;;;;;;;28.75;17.85;;;;;;;16.68;65.14;101266.78;8572988;34;20196;-72
2021/09/06 08:30:26;;;;;;;29.30;17.42;;;;;;;17.14;64.80;101283.31;8575467;34;20723;-71
2021/09/06 08:35:31;;;;;;;28.42;17.05;;;;;;;16.94;64.89;101280.59;8599071;34;20150;-72
2021/09/06 08:40:36;;;;;;;29.23;16.83;;;;;;;16.37;66.38;101274.16;8562937;34;20229;-72
2021/09/06 08:45:40;;;;;;;30.75;17.75;;;;;;;17.12;66.00;101278.00;8602459;34;20678;-72
2021/09/06 08:50:48;;;;;;;31.08;18.70;;;;;;;18.12;62.85;101282.81;8581057;34;20189;-71
2021/09/06 08:55:54;;;;;;;29.88;18.48;;;;;;;18.65;61.51;101302.97;8580777;34;21592;-72
2021/09/06 09:01:13;;;;;;;26.23;16.33;;;;;;;19.62;59.28;101293.88;8581111;34;20393;-71
2021/09/06 09:06:43;;;;;;;27.80;16.42;;;;;;;19.59;58.21;101296.09;8582503;34;20149;-71
2021/09/06 09:12:14;;;;;;;29.60;18.92;;;;;;;19.66;58.57;101295.28;8581254;34;20185;-71
2021/09/06 09:17:28;;;;;;;25.73;16.35;;;;;;;20.58;55.06;101286.41;8565120;34;20141;-71
2021/09/06 09:23:03;;;;;;;31.30;17.38;;;;;;;19.65;56.76;101293.56;8595449;34;20188;-71
2021/09/06 09:28:27;;;;;;;30.55;17.33;;;;;;;21.13;54.85;101294.81;8557905;34;20256;-71
2021/09/06 09:33:59;;;;;;;31.73;16.50;;;;;;;21.01;53.99;101282.53;8534702;34;20162;-72
2021/09/06 09:39:31;;;;;;;30.27;18.10;;;;;;;21.45;53.73;101293.94;8547489;34;20699;-71
2021/09/06 09:44:46;;;;;;;29.58;17.63;;;;;;;22.37;52.48;101296.16;8551506;34;20232;-72
2021/09/06 09:50:12;;;;;;;31.90;17.60;;;;;;;22.82;50.30;101288.16;8500806;34;20286;-71
2021/09/06 09:55:18;;;;;;;28.30;17.25;;;;;;;22.83;50.33;101281.66;8516276;34;21661;-71
2021/09/06 10:00:21;;;;;;;25.52;16.40;;;;;;;22.97;48.97;101278.13;8520563;34;20329;-71
2021/09/06 10:05:30;;;;;;;27.80;16.02;;;;;;;23.27;47.52;101278.22;8520043;34;21531;-71
2021/09/06 10:10:39;;;;;;;24.45;15.23;;;;;;;23.73;47.39;101278.91;8520772;34;20173;-71
2021/09/06 10:15:44;;;;;;;24.85;16.65;;;;;;;24.69;44.67;101265.13;8520255;34;20178;-71
2021/09/06 10:20:50;;;;;;;27.40;14.98;;;;;;;24.42;44.70;101264.84;8518028;34;20211;-72
2021/09/06 10:26:09;;;;;;;21.08;13.48;;;;;;;24.01;45.15;101270.03;8521641;34;20189;-72
2021/09/06 10:31:23;;;;;;;23.13;12.77;;;;;;;22.98;47.68;101279.81;8517383;34;20170;-71
2021/09/06 10:36:27;;;;;;;18.67;12.18;;;;;;;23.15;47.08;101272.34;8520161;34;20186;-71
2021/09/06 10:41:31;;;;;;;24.23;14.93;;;;;;;23.39;47.10;101273.97;8516342;34;20505;-71
2021/09/06 10:46:36;;;;;;;23.65;15.18;;;;;;;24.00;47.05;101268.34;8523171;34;20304;-71
2021/09/06 10:51:38;;;;;;;23.67;14.85;;;;;;;25.23;43.03;101260.94;8515337;34;20151;-72
2021/09/06 10:56:45;;;;;;;23.80;14.48;;;;;;;26.58;41.09;101254.00;8546158;34;20189;-71
2021/09/06 11:01:52;;;;;;;22.35;14.63;;;;;;;27.10;39.20;101258.69;8534021;34;20197;-71
2021/09/06 11:07:00;;;;;;;21.30;12.65;;;;;;;27.18;39.11;101257.63;8544607;34;20158;-72
2021/09/06 11:12:09;;;;;;;19.95;11.90;;;;;;;27.37;35.17;101250.38;8544711;34;20190;-72
2021/09/06 11:17:22;;;;;;;18.35;12.63;;;;;;;27.43;36.37;101256.97;8544675;34;20237;-71
2021/09/06 11:22:27;;;;;;;17.05;12.00;;;;;;;27.90;36.04;101258.53;8545181;34;20217;-71
2021/09/06 11:27:34;;;;;;;20.00;12.48;;;;;;;28.33;34.99;101251.53;8544442;34;22322;-71
2021/09/06 11:32:48;;;;;;;17.52;11.82;;;;;;;27.20;36.25;101243.63;8543980;34;20641;-72
2021/09/06 11:37:52;;;;;;;16.77;11.70;;;;;;;28.21;36.42;101251.41;8544083;34;20247;-72
2021/09/06 11:42:58;;;;;;;17.27;12.20;;;;;;;28.90;33.75;101246.91;8547242;34;20686;-72
2021/09/06 11:48:02;;;;;;;16.67;11.30;;;;;;;28.01;35.77;101241.31;8543909;34;20193;-72
2021/09/06 11:53:08;;;;;;;20.27;12.57;;;;;;;27.94;33.75;101243.22;8543742;34;20440;-71
2021/09/06 11:58:14;;;;;;;16.23;10.55;;;;;;;28.67;34.84;101244.78;8544107;34;20182;-72
2021/09/06 12:03:25;;;;;;;16.77;11.35;;;;;;;28.37;32.97;101237.06;8544842;34;20241;-71
2021/09/06 12:08:28;;;;;;;15.38;10.73;;;;;;;28.60;33.95;101236.50;8544900;34;20564;-71
2021/09/06 12:13:34;;;;;;;16.30;11.35;;;;;;;28.68;34.93;101236.25;8544183;34;20182;-72
2021/09/06 12:18:40;;;;;;;18.60;11.63;;;;;;;28.76;33.59;101232.34;8542706;34;20154;-72
2021/09/06 12:23:46;;;;;;;15.90;11.07;;;;;;;28.19;34.91;101236.97;8544733;34;20213;-72
2021/09/06 12:28:53;;;;;;;13.38;10.05;;;;;;;27.99;35.66;101243.44;8543362;34;20449;-72
2021/09/06 12:33:56;;;;;;;17.40;10.63;;;;;;;28.09;35.54;101242.16;8543398;34;20269;-72
2021/09/06 12:38:59;;;;;;;16.45;10.57;;;;;;;28.04;34.49;101249.16;8543127;34;20197;-72
2021/09/06 12:44:04;;;;;;;15.35;9.93;;;;;;;28.12;33.77;101252.75;8543815;34;20228;-72
2021/09/06 12:49:08;;;;;;;12.82;9.05;;;;;;;28.68;34.12;101257.50;8520338;34;20708;-72
2021/09/06 12:54:12;;;;;;;12.70;9.25;;;;;;;30.00;31.55;101249.81;8543918;34;20139;-72
2021/09/06 12:59:17;;;;;;;13.30;10.18;;;;;;;30.40;30.96;101238.22;8543041;34;20231;-72
2021/09/06 13:04:20;;;;;;;13.05;9.90;;;;;;;30.50;30.99;101239.56;8542294;34;20244;-73
2021/09/06 13:09:23;;;;;;;12.68;8.88;;;;;;;31.88;28.70;101229.88;8574008;34;20244;-72
2021/09/06 13:14:29;;;;;;;12.55;9.57;;;;;;;33.15;28.19;101224.13;8599411;34;20145;-72
2021/09/06 13:19:33;;;;;;;14.85;9.68;;;;;;;33.21;26.41;101223.09;8601377;34;20279;-73
2021/09/06 13:24:36;;;;;;;11.48;8.93;;;;;;;32.60;27.61;101225.66;8597669;34;20203;-72
2021/09/06 13:29:40;;;;;;;12.73;8.75;;;;;;;32.71;27.31;101223.94;8576514;34;20655;-73
2021/09/06 13:34:44;;;;;;;12.23;8.38;;;;;;;32.58;27.68;101219.50;8604331;34;20227;-73
2021/09/06 13:39:47;;;;;;;12.13;8.73;;;;;;;31.04;28.54;101219.06;8607986;34;20283;-73
2021/09/06 13:44:51;;;;;;;14.90;8.20;;;;;;;31.33;28.75;101222.00;8604578;34;20642;-72
2021/09/06 13:49:55;;;;;;;11.52;8.05;;;;;;;31.44;27.95;101221.13;8603531;34;20813;-72
2021/09/06 13:54:59;;;;;;;10.43;7.63;;;;;;;30.71;26.98;101218.81;8603853;34;20284;-72
2021/09/06 14:00:05;;;;;;;10.55;6.75;;;;;;;30.45;28.68;101207.88;8603081;34;20149;-72
2021/09/06 14:05:09;;;;;;;12.63;7.90;;;;;;;30.58;28.15;101211.50;8602798;34;20149;-72
2021/09/06 14:10:13;;;;;;;9.35;6.60;;;;;;;28.60;28.88;101203.34;8601895;34;20437;-71
2021/09/06 14:15:18;;;;;;;9.50;6.32;;;;;;;27.81;30.56;101201.88;8600953;34;20134;-71
2021/09/06 14:20:22;;;;;;;9.88;6.90;;;;;;;28.56;30.62;101201.28;8597775;34;20205;-72
2021/09/06 14:25:25;;;;;;;10.40;7.05;;;;;;;30.23;27.86;101202.03;8601395;34;20276;-71
2021/09/06 14:30:29;;;;;;;10.52;6.72;;;;;;;30.03;27.98;101201.44;8601874;34;20203;-71
2021/09/06 14:35:33;;;;;;;9.23;6.72;;;;;;;29.13;28.64;101208.44;8601907;34;20185;-72
2021/09/06 14:40:36;;;;;;;8.63;6.32;;;;;;;27.15;28.82;101208.41;8605900;34;20185;-71
2021/09/06 14:45:41;;;;;;;9.70;6.78;;;;;;;25.87;33.39;101204.84;8605560;34;20185;-72
2021/09/06 14:50:44;;;;;;;9.07;6.30;;;;;;;25.02;34.68;101213.19;8606244;34;20591;-73
2021/09/06 14:55:47;;;;;;;9.68;6.70;;;;;;;24.65;34.71;101204.22;8607750;34;20635;-73
2021/09/06 15:00:52;;;;;;;9.80;6.15;;;;;;;24.38;36.49;101214.09;8609296;34;20149;-73
2021/09/06 15:05:58;;;;;;;11.00;6.80;;;;;;;24.16;36.93;101215.09;8609063;34;20459;-72
2021/09/06 15:11:01;;;;;;;10.90;7.05;;;;;;;24.16;37.00;101210.44;8608169;34;21091;-71
2021/09/06 15:16:06;;;;;;;8.95;6.55;;;;;;;24.15;37.99;101200.53;8607294;34;20177;-73
2021/09/06 15:21:10;;;;;;;10.30;6.72;;;;;;;24.29;37.26;101196.03;8607542;34;20267;-73
2021/09/06 15:26:14;;;;;;;10.32;6.85;;;;;;;24.25;37.09;101200.22;8606281;34;20271;-73
2021/09/06 15:31:39;;;;;;;9.73;6.07;;;;;;;24.21;37.41;101199.72;8603581;34;20630;-73
2021/09/06 15:36:43;;;;;;;10.40;7.38;;;;;;;24.76;36.28;101198.16;8611740;34;20185;-72
2021/09/06 15:41:49;;;;;;;7.93;6.00;;;;;;;26.06;33.80;101182.88;8601135;34;20284;-73
2021/09/06 15:46:54;;;;;;;10.32;6.32;;;;;;;25.96;35.12;101196.19;8602005;34;20874;-72
2021/09/06 15:51:57;;;;;;;10.23;6.30;;;;;;;26.24;34.16;101182.28;8599599;34;20255;-72
2021/09/06 15:57:01;;;;;;;8.70;6.05;;;;;;;25.46;34.84;101183.69;8597833;34;20233;-72
2021/09/06 16:02:06;;;;;;;10.23;6.40;;;;;;;24.45;37.34;101179.31;8599652;34;20296;-72
2021/09/06 16:07:09;;;;;;;8.70;6.43;;;;;;;23.85;39.49;101178.66;8599063;34;20997;-72
2021/09/06 16:12:13;;;;;;;8.73;6.32;;;;;;;23.39;39.78;101186.25;8599455;34;20192;-72
2021/09/06 16:17:17;;;;;;;8.88;6.10;;;;;;;23.81;40.61;101174.59;8598415;34;20188;-72
2021/09/06 16:22:22;;;;;;;10.63;6.03;;;;;;;24.74;38.13;101177.47;8598910;34;20728;-73
2021/09/06 16:27:25;;;;;;;8.88;6.35;;;;;;;25.94;36.39;101179.00;8598500;34;20279;-72
2021/09/06 16:32:29;;;;;;;9.05;5.72;;;;;;;26.01;35.85;101182.66;8598959;34;20193;-72
2021/09/06 16:37:34;;;;;;;9.15;5.93;;;;;;;24.95;37.49;101173.81;8597993;34;20158;-73
2021/09/06 16:42:37;;;;;;;8.98;5.82;;;;;;;25.07;37.19;101182.41;8599173;34;20230;-72
2021/09/06 16:47:42;;;;;;;9.35;5.88;;;;;;;25.04;37.51;101188.25;8598700;34;20164;-72
2021/09/06 16:52:45;;;;;;;8.45;5.80;;;;;;;24.06;38.58;101179.75;8598500;34;20197;-70
2021/09/06 16:57:48;;;;;;;8.18;5.50;;;;;;;23.01;39.94;101180.84;8597643;34;20177;-71
2021/09/06 17:02:55;;;;;;;9.88;5.78;;;;;;;22.45;41.61;101185.78;8598022;34;20240;-71
2021/09/06 17:07:58;;;;;;;8.20;5.68;;;;;;;22.04;43.10;101183.31;8603117;34;20360;-71
2021/09/06 17:13:03;;;;;;;7.22;5.50;;;;;;;21.69;43.95;101185.50;8603220;34;20569;-71
2021/09/06 17:18:07;;;;;;;6.75;5.20;;;;;;;21.37;43.97;101183.78;8602959;34;20291;-73
2021/09/06 17:23:10;;;;;;;7.38;5.40;;;;;;;21.08;45.19;101189.84;8603738;34;20407;-74
2021/09/06 17:28:13;;;;;;;8.43;5.47;;;;;;;20.84;45.33;101188.81;8603492;34;20515;-72
2021/09/06 17:33:21;;;;;;;9.75;6.03;;;;;;;20.64;46.01;101187.47;8603968;34;20455;-73
2021/09/06 17:38:24;;;;;;;9.43;6.38;;;;;;;20.46;46.25;101184.91;8603020;34;20184;-72
2021/09/06 17:43:27;;;;;;;9.00;5.97;;;;;;;20.38;46.12;101180.31;8603457;34;20189;-72
2021/09/06 17:48:31;;;;;;;7.40;5.45;;;;;;;20.24;47.32;101180.94;8602614;34;20235;-72
2021/09/06 17:53:34;;;;;;;8.57;6.25;;;;;;;20.10;48.42;101198.81;8602175;34;20627;-73
2021/09/06 17:58:38;;;;;;;9.52;6.00;;;;;;;19.97;48.47;101198.47;8601900;34;20185;-72
2021/09/06 18:03:42;;;;;;;8.95;5.60;;;;;;;19.67;48.94;101196.16;8602946;34;20243;-72
2021/09/06 18:08:45;;;;;;;9.27;5.88;;;;;;;19.43;49.79;101206.91;8602279;34;20437;-72
2021/09/06 18:13:48;;;;;;;7.75;5.50;;;;;;;19.33;49.96;101211.59;8601966;34;20602;-72
2021/09/06 18:18:52;;;;;;;10.32;6.13;;;;;;;19.27;50.05;101214.97;8601409;34;20134;-72
2021/09/06 18:23:59;;;;;;;8.90;5.78;;;;;;;19.23;50.38;101219.91;8602930;34;20280;-72
2021/09/06 18:29:02;;;;;;;9.90;6.18;;;;;;;19.20;50.35;101212.06;8603521;34;20185;-72
2021/09/06 18:34:06;;;;;;;8.75;5.95;;;;;;;19.14;50.52;101221.72;8602994;34;20195;-72
2021/09/06 18:39:09;;;;;;;8.25;5.55;;;;;;;19.06;50.68;101226.25;8604556;34;20902;-72
2021/09/06 18:44:12;;;;;;;8.30;5.70;;;;;;;18.92;51.07;101233.97;8605090;34;21740;-72
2021/09/06 18:49:17;;;;;;;9.18;5.47;;;;;;;18.91;51.21;101229.56;8604482;34;20193;-72
2021/09/06 18:54:20;;;;;;;9.57;5.40;;;;;;;18.88;51.05;101229.88;8604750;34;20251;-72
2021/09/06 18:59:23;;;;;;;6.20;5.07;;;;;;;18.84;51.70;101230.34;8608834;34;20228;-72
2021/09/06 19:04:27;;;;;;;7.95;5.70;;;;;;;18.73;51.77;101234.13;8609918;34;20643;-71
2021/09/06 19:09:32;;;;;;;9.20;5.60;;;;;;;18.64;52.08;101240.53;8604193;34;20149;-71
2021/09/06 19:14:35;;;;;;;11.25;6.55;;;;;;;18.60;52.13;101242.72;8603133;34;20166;-71
2021/09/06 19:19:41;;;;;;;7.05;5.03;;;;;;;18.46;52.44;101243.25;8602405;34;20172;-72
2021/09/06 19:24:44;;;;;;;8.02;5.65;;;;;;;18.41;53.34;101251.88;8602001;34;20189;-71
2021/09/06 19:29:48;;;;;;;10.00;6.00;;;;;;;18.21;53.21;101255.72;8602063;34;20282;-71
2021/09/06 19:34:53;;;;;;;7.47;5.38;;;;;;;18.09;53.35;101257.81;8601438;34;20263;-72
2021/09/06 19:39:57;;;;;;;12.63;6.25;;;;;;;17.99;54.19;101262.44;8577227;34;20230;-70
2021/09/06 19:45:01;;;;;;;10.48;6.32;;;;;;;17.94;54.69;101271.03;8606136;34;20200;-71
2021/09/06 19:50:08;;;;;;;8.80;5.95;;;;;;;17.87;54.82;101286.22;8602409;34;20201;-71
2021/09/06 19:55:12;;;;;;;8.32;5.82;;;;;;;17.82;55.32;101288.53;8601850;34;20207;-71
2021/09/06 20:00:16;;;;;;;10.52;6.10;;;;;;;17.75;55.45;101290.16;8601541;34;20181;-71
2021/09/06 20:05:22;;;;;;;9.45;5.75;;;;;;;17.74;55.80;101283.84;8600935;34;20756;-72
2021/09/06 20:10:27;;;;;;;7.70;5.95;;;;;;;17.61;56.47;101294.22;8603120;34;20231;-72
2021/09/06 20:15:31;;;;;;;8.75;5.75;;;;;;;17.48;56.48;101287.25;8601692;34;20211;-71
2021/09/06 20:20:36;;;;;;;8.13;5.75;;;;;;;17.35;56.79;101283.97;8601615;34;21028;-72
2021/09/06 20:25:39;;;;;;;10.50;6.15;;;;;;;17.47;57.05;101276.53;8577936;34;20223;-71
2021/09/06 20:30:42;;;;;;;9.25;6.60;;;;;;;17.52;56.77;101284.22;8601796;34;20192;-71
2021/09/06 20:35:46;;;;;;;7.43;5.85;;;;;;;17.48;57.06;101284.53;8601002;34;20239;-71
2021/09/06 20:40:49;;;;;;;11.02;6.20;;;;;;;17.40;57.25;101276.25;8604219;34;20281;-72
2021/09/06 20:45:53;;;;;;;8.23;6.10;;;;;;;17.35;57.42;101267.69;8606936;34;20154;-71
2021/09/06 20:50:57;;;;;;;8.75;6.18;;;;;;;17.22;57.41;101273.47;8605176;34;20263;-71
2021/09/06 20:56:00;;;;;;;8.93;5.90;;;;;;;17.23;57.34;101261.59;8607990;34;20525;-71
2021/09/06 21:01:03;;;;;;;9.48;6.18;;;;;;;17.20;58.05;101270.03;8606378;34;21428;-72
2021/09/06 21:06:08;;;;;;;9.30;5.75;;;;;;;16.92;58.81;101262.75;8606703;34;20170;-72
2021/09/06 21:11:13;;;;;;;11.73;6.57;;;;;;;16.72;60.02;101254.63;8584470;34;20492;-72
2021/09/06 21:16:20;;;;;;;10.40;6.22;;;;;;;16.69;60.29;101264.91;8584281;34;20213;-72
2021/09/06 21:21:26;;;;;;;9.20;6.78;;;;;;;16.82;60.41;101254.63;8606715;34;20200;-72
2021/09/06 21:26:29;;;;;;;9.48;6.57;;;;;;;16.79;60.72;101268.50;8606063;34;20291;-72
2021/09/06 21:31:32;;;;;;;11.90;6.40;;;;;;;16.74;60.79;101262.63;8604749;34;20288;-72
2021/09/06 21:36:36;;;;;;;8.38;5.90;;;;;;;16.70;61.33;101270.22;8606228;34;20200;-72
2021/09/06 21:41:39;;;;;;;10.98;6.75;;;;;;;16.75;61.26;101272.47;8606297;34;20412;-72
2021/09/06 21:46:42;;;;;;;11.52;6.75;;;;;;;16.81;61.62;101280.03;8606677;34;20947;-71
2021/09/06 21:51:46;;;;;;;10.13;6.53;;;;;;;16.74;61.99;101285.19;8582121;34;20611;-72
2021/09/06 21:56:49;;;;;;;10.27;6.57;;;;;;;16.75;62.19;101291.47;8581339;34;20173;-69
2021/09/06 22:01:52;;;;;;;7.72;6.20;;;;;;;16.72;62.47;101295.31;8606144;34;20252;-71
2021/09/06 22:06:57;;;;;;;11.27;6.75;;;;;;;16.68;62.62;101282.19;8582083;34;20185;-72
2021/09/06 22:12:00;;;;;;;13.27;7.72;;;;;;;16.62;63.01;101280.03;8604969;34;20197;-72
2021/09/06 22:17:04;;;;;;;11.30;6.53;;;;;;;16.61;63.14;101281.03;8604774;34;20181;-73
2021/09/06 22:22:09;;;;;;;10.45;6.85;;;;;;;16.53;63.46;101282.59;8606304;34;20483;-72
2021/09/06 22:27:12;;;;;;;15.45;7.07;;;;;;;16.45;63.68;101277.03;8605587;34;21023;-72
2021/09/06 22:32:15;;;;;;;8.75;6.30;;;;;;;16.56;63.26;101271.50;8605189;34;20188;-72
2021/09/06 22:37:19;;;;;;;11.85;6.57;;;;;;;16.48;63.33;101271.34;8605460;34;20802;-72
2021/09/06 22:42:22;;;;;;;14.20;6.90;;;;;;;16.29;63.65;101279.41;8604863;34;21384;-71
2021/09/06 22:47:25;;;;;;;12.15;7.30;;;;;;;16.21;64.11;101279.22;8604793;34;21519;-71
2021/09/06 22:52:30;;;;;;;11.20;7.03;;;;;;;16.05;64.27;101271.66;8579734;34;20188;-72
2021/09/06 22:57:33;;;;;;;11.95;7.15;;;;;;;15.91;64.82;101281.88;8603755;34;20472;-72
2021/09/06 23:02:37;;;;;;;9.93;6.82;;;;;;;15.86;65.00;101286.84;8603890;34;20146;-72
2021/09/06 23:07:41;;;;;;;11.32;7.18;;;;;;;15.83;65.14;101279.00;8584632;34;21289;-72
2021/09/06 23:12:44;;;;;;;11.80;7.97;;;;;;;15.79;65.47;101282.09;8605209;34;20219;-71
2021/09/06 23:17:48;;;;;;;14.10;9.25;;;;;;;15.40;66.74;101282.78;8580402;34;20150;-72
2021/09/06 23:22:54;;;;;;;12.00;7.53;;;;;;;14.91;68.27;101276.16;8609174;34;20223;-71